createdAt,value
2022-07-30T00:00:37.417Z,2.90
2022-07-30T00:03:03.937Z,2.80
2022-07-30T00:05:30.404Z,2.70
2022-07-30T00:07:56.923Z,2.63
2022-07-30T00:10:23.449Z,3.00
2022-07-30T00:12:50.214Z,2.63
2022-07-30T00:15:16.933Z,2.63
2022-07-30T00:17:43.479Z,2.60
2022-07-30T00:20:15.580Z,2.13
2022-07-30T00:22:43.883Z,2.80
2022-07-30T00:25:10.454Z,2.80
2022-07-30T00:27:37.056Z,3.00
2022-07-30T00:30:04.690Z,2.80
2022-07-30T00:32:31.190Z,2.73
2022-07-30T00:34:57.684Z,2.63
2022-07-30T00:37:24.244Z,2.47
2022-07-30T00:39:50.717Z,2.97
2022-07-30T00:42:20.652Z,2.60
2022-07-30T00:44:47.119Z,2.60
2022-07-30T00:47:13.579Z,2.97
2022-07-30T00:49:44.179Z,2.80
2022-07-30T00:52:10.925Z,2.53
2022-07-30T00:54:37.434Z,2.97
2022-07-30T00:57:04.027Z,2.80
2022-07-30T00:59:31.713Z,2.53
2022-07-30T01:02:01.738Z,2.63
2022-07-30T01:04:28.433Z,2.83
2022-07-30T01:06:54.920Z,2.80
2022-07-30T01:09:21.392Z,2.73
2022-07-30T01:11:47.883Z,3.43
2022-07-30T01:14:14.408Z,2.80
2022-07-30T01:16:42.798Z,3.13
2022-07-30T01:19:38.578Z,2.87
2022-07-30T01:22:31.557Z,2.70
2022-07-30T01:25:04.110Z,3.00
2022-07-30T01:27:32.923Z,2.70
2022-07-30T01:30:01.915Z,3.00
2022-07-30T01:32:29.127Z,3.10
2022-07-30T01:34:57.057Z,3.30
2022-07-30T01:37:24.510Z,2.90
2022-07-30T01:39:51.612Z,2.77
2022-07-30T01:42:18.965Z,3.20
2022-07-30T01:44:46.016Z,2.90
2022-07-30T01:47:13.875Z,3.10
2022-07-30T01:49:41.715Z,3.27
2022-07-30T01:52:08.589Z,2.83
2022-07-30T01:54:36.400Z,3.10
2022-07-30T01:57:03.482Z,2.83
2022-07-30T01:59:31.909Z,3.57
2022-07-30T02:01:58.648Z,3.10
2022-07-30T02:04:25.206Z,2.70
2022-07-30T02:07:01.373Z,3.03
2022-07-30T02:09:36.584Z,3.17
2022-07-30T02:12:22.946Z,2.93
2022-07-30T02:14:54.996Z,2.67
2022-07-30T02:17:30.182Z,3.00
2022-07-30T02:19:57.676Z,3.20
2022-07-30T02:22:25.670Z,3.23
2022-07-30T02:24:52.658Z,3.00
2022-07-30T02:27:24.360Z,2.90
2022-07-30T02:29:52.116Z,2.73
2022-07-30T02:32:24.826Z,3.16
2022-07-30T02:34:57.529Z,3.03
2022-07-30T02:37:43.207Z,2.93
2022-07-30T02:40:12.845Z,2.70
2022-07-30T02:42:39.803Z,3.10
2022-07-30T02:45:07.078Z,3.00
2022-07-30T02:47:34.760Z,2.87
2022-07-30T02:50:01.949Z,3.10
2022-07-30T02:52:28.840Z,3.00
2022-07-30T02:54:56.402Z,3.43
2022-07-30T02:57:23.419Z,2.70
2022-07-30T02:59:50.781Z,3.37
2022-07-30T03:02:17.423Z,2.80
2022-07-30T03:04:57.467Z,2.80
2022-07-30T03:07:25.273Z,3.30
2022-07-30T03:09:52.959Z,3.03
2022-07-30T03:12:19.801Z,3.10
2022-07-30T03:14:46.334Z,3.13
2022-07-30T03:17:15.122Z,3.27
2022-07-30T03:19:42.692Z,3.37
2022-07-30T03:22:09.901Z,2.97
2022-07-30T03:24:38.333Z,3.40
2022-07-30T03:27:05.776Z,3.70
2022-07-30T03:29:32.920Z,2.80
2022-07-30T03:31:59.862Z,3.13
2022-07-30T03:34:27.012Z,3.63
2022-07-30T03:36:55.624Z,2.70
2022-07-30T03:39:22.517Z,3.53
2022-07-30T03:41:49.540Z,2.87
2022-07-30T03:44:16.358Z,3.03
2022-07-30T03:46:43.392Z,2.83
2022-07-30T03:49:10.524Z,3.30
2022-07-30T03:51:38.949Z,2.63
2022-07-30T03:54:13.310Z,3.30
2022-07-30T03:56:40.487Z,2.95
2022-07-30T03:59:07.019Z,3.58
2022-07-30T04:01:33.680Z,3.28
2022-07-30T04:04:07.471Z,3.13
2022-07-30T04:06:39.548Z,3.15
2022-07-30T04:09:07.366Z,3.67
2022-07-30T04:11:40.844Z,2.97
2022-07-30T04:14:08.709Z,3.10
2022-07-30T04:16:42.102Z,3.15
2022-07-30T04:19:12.597Z,3.85
2022-07-30T04:21:40.707Z,3.30
2022-07-30T04:24:08.109Z,3.42
2022-07-30T04:26:36.080Z,3.50
2022-07-30T04:29:13.476Z,3.88
2022-07-30T04:31:44.012Z,3.30
2022-07-30T04:34:13.178Z,3.85
2022-07-30T04:36:40.300Z,3.45
2022-07-30T04:39:06.898Z,3.63
2022-07-30T04:41:35.412Z,3.67
2022-07-30T04:44:15.779Z,3.45
2022-07-30T04:46:42.318Z,3.15
2022-07-30T04:49:09.144Z,3.58
2022-07-30T04:51:37.123Z,3.75
2022-07-30T04:54:05.563Z,3.00
2022-07-30T04:56:33.871Z,3.38
2022-07-30T04:59:01.392Z,2.83
2022-07-30T05:01:35.928Z,2.97
2022-07-30T05:04:08.490Z,2.75
2022-07-30T05:06:35.507Z,2.80
2022-07-30T05:09:02.059Z,3.38
2022-07-30T05:11:28.547Z,2.30
2022-07-30T05:13:55.000Z,3.10
2022-07-30T05:16:21.619Z,3.08
2022-07-30T05:18:48.280Z,2.90
2022-07-30T05:21:14.755Z,3.08
2022-07-30T05:23:41.252Z,3.25
2022-07-30T05:26:19.272Z,3.67
2022-07-30T05:28:48.485Z,2.85
2022-07-30T05:31:18.684Z,2.92
2022-07-30T05:33:45.222Z,2.28
2022-07-30T05:36:11.711Z,3.33
2022-07-30T05:38:38.384Z,2.75
2022-07-30T05:41:04.911Z,2.60
2022-07-30T05:43:56.131Z,3.08
2022-07-30T05:46:23.132Z,3.30
2022-07-30T05:48:49.716Z,2.92
2022-07-30T05:51:16.959Z,2.63
2022-07-30T05:53:43.543Z,2.88
2022-07-30T05:56:10.007Z,2.58
2022-07-30T05:58:36.521Z,2.83
2022-07-30T06:01:03.065Z,2.67
2022-07-30T06:03:29.568Z,3.15
2022-07-30T06:05:56.139Z,3.47
2022-07-30T06:08:22.680Z,2.58
2022-07-30T06:10:49.148Z,2.95
2022-07-30T06:13:15.616Z,2.83
2022-07-30T06:15:42.196Z,3.00
2022-07-30T06:18:08.673Z,3.05
2022-07-30T06:20:35.244Z,2.85
2022-07-30T06:23:01.945Z,2.65
2022-07-30T06:25:28.453Z,2.75
2022-07-30T06:27:54.996Z,2.80
2022-07-30T06:30:21.483Z,3.53
2022-07-30T06:32:58.089Z,3.53
2022-07-30T06:35:24.583Z,3.55
2022-07-30T06:38:06.864Z,3.00
2022-07-30T06:40:34.559Z,2.47
2022-07-30T06:43:01.080Z,2.90
2022-07-30T06:45:27.557Z,2.45
2022-07-30T06:47:57.410Z,2.83
2022-07-30T06:50:23.984Z,2.78
2022-07-30T06:52:50.466Z,2.60
2022-07-30T06:55:17.017Z,2.97
2022-07-30T06:57:43.475Z,2.80
2022-07-30T07:00:10.221Z,2.80
2022-07-30T07:02:37.008Z,2.77
2022-07-30T07:05:03.627Z,2.85
2022-07-30T07:07:41.367Z,2.33
2022-07-30T07:10:08.788Z,2.58
2022-07-30T07:12:35.293Z,2.90
2022-07-30T07:15:02.019Z,2.72
2022-07-30T07:17:28.941Z,2.58
2022-07-30T07:19:59.700Z,2.45
2022-07-30T07:22:28.494Z,2.97
2022-07-30T07:24:55.052Z,2.75
2022-07-30T07:27:21.669Z,2.22
2022-07-30T07:30:01.402Z,2.60
2022-07-30T07:32:31.405Z,2.65
2022-07-30T07:34:57.957Z,2.40
2022-07-30T07:37:24.456Z,2.22
2022-07-30T07:39:50.940Z,2.58
2022-07-30T07:42:17.443Z,2.10
2022-07-30T07:44:43.940Z,2.67
2022-07-30T07:47:10.435Z,2.05
2022-07-30T07:49:36.930Z,1.80
2022-07-30T07:52:03.569Z,2.13
2022-07-30T07:54:30.038Z,2.17
2022-07-30T07:56:56.762Z,2.28
2022-07-30T07:59:23.772Z,2.38
2022-07-30T08:01:58.171Z,2.13
2022-07-30T08:04:28.176Z,2.07
2022-07-30T08:06:54.639Z,2.00
2022-07-30T08:09:21.140Z,2.05
2022-07-30T08:11:48.005Z,2.28
2022-07-30T08:14:14.562Z,1.85
2022-07-30T08:16:41.204Z,2.05
2022-07-30T08:19:07.706Z,2.15
2022-07-30T08:21:34.215Z,2.10
2022-07-30T08:24:00.707Z,2.53
2022-07-30T08:26:27.211Z,1.85
2022-07-30T08:28:54.537Z,2.50
2022-07-30T08:31:21.187Z,2.58
2022-07-30T08:33:47.671Z,1.80
2022-07-30T08:36:14.204Z,2.00
2022-07-30T08:38:40.765Z,2.28
2022-07-30T08:41:07.733Z,1.80
2022-07-30T08:43:35.360Z,2.50
2022-07-30T08:46:02.302Z,2.42
2022-07-30T08:48:29.381Z,2.30
2022-07-30T08:50:56.570Z,1.90
2022-07-30T08:53:23.737Z,1.95
2022-07-30T08:55:50.238Z,2.20
2022-07-30T08:58:31.338Z,1.90
2022-07-30T09:00:58.296Z,2.13
2022-07-30T09:03:24.854Z,1.73
2022-07-30T09:05:51.421Z,1.90
2022-07-30T09:08:18.850Z,2.10
2022-07-30T09:10:49.507Z,2.03
2022-07-30T09:13:28.954Z,2.10
2022-07-30T09:15:55.937Z,2.05
2022-07-30T09:18:34.466Z,2.00
2022-07-30T09:21:01.899Z,2.03
2022-07-30T09:23:28.810Z,2.20
2022-07-30T09:25:59.150Z,2.08
2022-07-30T09:28:30.370Z,2.17
2022-07-30T09:30:57.393Z,2.22
2022-07-30T09:33:42.771Z,2.08
2022-07-30T09:36:11.076Z,2.08
2022-07-30T09:38:45.036Z,2.10
2022-07-30T09:41:23.055Z,1.75
2022-07-30T09:44:00.037Z,2.40
2022-07-30T09:46:42.986Z,2.50
2022-07-30T09:49:25.609Z,2.03
2022-07-30T09:51:56.687Z,2.53
2022-07-30T09:54:25.351Z,2.35
2022-07-30T09:57:26.606Z,2.50
2022-07-30T09:59:54.032Z,2.47
2022-07-30T10:02:21.618Z,2.50
2022-07-30T10:04:48.156Z,2.50
2022-07-30T10:07:25.203Z,2.20
2022-07-30T10:09:53.374Z,2.35
2022-07-30T10:12:20.586Z,2.40
2022-07-30T10:14:52.961Z,2.33
2022-07-30T10:17:19.762Z,1.92
2022-07-30T10:19:47.223Z,2.15
2022-07-30T10:22:17.024Z,2.20
2022-07-30T10:24:44.530Z,2.08
2022-07-30T10:27:12.032Z,2.20
2022-07-30T10:29:42.616Z,2.20
2022-07-30T10:32:09.922Z,2.80
2022-07-30T10:34:42.604Z,2.15
2022-07-30T10:37:10.926Z,2.05
2022-07-30T10:39:56.205Z,2.10
2022-07-30T10:42:32.733Z,1.98
2022-07-30T10:44:59.655Z,2.30
2022-07-30T10:47:33.489Z,3.00
2022-07-30T10:50:11.615Z,2.55
2022-07-30T10:52:51.899Z,2.60
2022-07-30T10:55:19.492Z,2.30
2022-07-30T10:58:08.363Z,2.50
2022-07-30T11:00:55.746Z,2.45
2022-07-30T11:03:40.617Z,2.10
2022-07-30T11:06:17.057Z,2.58
2022-07-30T11:08:51.100Z,2.35
2022-07-30T11:11:20.517Z,2.78
2022-07-30T11:13:54.993Z,2.47
2022-07-30T11:16:42.656Z,2.53
2022-07-30T11:19:53.354Z,2.70
2022-07-30T11:22:39.059Z,2.20
2022-07-30T11:25:13.178Z,2.38
2022-07-30T11:27:48.546Z,2.13
2022-07-30T11:30:18.878Z,2.78
2022-07-30T11:32:48.405Z,2.67
2022-07-30T11:35:24.448Z,2.65
2022-07-30T11:38:19.959Z,2.70
2022-07-30T11:40:49.144Z,2.70
2022-07-30T11:43:37.036Z,2.75
2022-07-30T11:46:10.980Z,2.30
2022-07-30T11:48:39.887Z,2.47
2022-07-30T11:51:06.629Z,2.50
2022-07-30T11:53:33.123Z,2.20
2022-07-30T11:56:01.735Z,2.30
2022-07-30T11:58:32.316Z,2.40
2022-07-30T12:01:03.570Z,2.50
2022-07-30T12:03:39.817Z,2.38
2022-07-30T12:06:07.290Z,2.63
2022-07-30T12:08:41.337Z,2.78
2022-07-30T12:11:07.849Z,2.80
2022-07-30T12:13:44.262Z,2.47
2022-07-30T12:16:13.443Z,2.75
2022-07-30T12:18:39.963Z,2.63
2022-07-30T12:21:16.776Z,2.30
2022-07-30T12:23:53.055Z,3.08
2022-07-30T12:26:27.229Z,2.80
2022-07-30T12:28:55.200Z,2.85
2022-07-30T12:31:21.848Z,2.78
2022-07-30T12:33:48.363Z,2.97
2022-07-30T12:36:44.407Z,2.55
2022-07-30T12:39:18.132Z,2.80
2022-07-30T12:41:50.842Z,2.90
2022-07-30T12:44:39.907Z,2.80
2022-07-30T12:47:07.605Z,3.10
2022-07-30T12:49:36.708Z,2.83
2022-07-30T12:52:28.226Z,3.13
2022-07-30T12:55:06.326Z,3.20
2022-07-30T12:57:51.362Z,2.75
2022-07-30T13:00:24.589Z,2.66
2022-07-30T13:02:51.295Z,2.70
2022-07-30T13:05:17.841Z,2.40
2022-07-30T13:08:13.590Z,3.10
2022-07-30T13:10:53.630Z,2.67
2022-07-30T13:13:20.145Z,2.53
2022-07-30T13:15:56.885Z,2.42
2022-07-30T13:18:23.357Z,3.03
2022-07-30T13:20:49.878Z,2.55
2022-07-30T13:23:17.125Z,2.85
2022-07-30T13:25:43.617Z,3.05
2022-07-30T13:28:10.162Z,2.80
2022-07-30T13:30:36.703Z,3.15
2022-07-30T13:33:03.316Z,3.10
2022-07-30T13:35:29.828Z,3.10
2022-07-30T13:37:57.156Z,2.50
2022-07-30T13:40:23.652Z,3.13
2022-07-30T13:42:50.136Z,2.90
2022-07-30T13:45:16.808Z,2.65
2022-07-30T13:47:43.505Z,3.03
2022-07-30T13:50:10.035Z,2.97
2022-07-30T13:52:36.559Z,2.72
2022-07-30T13:55:03.110Z,2.97
2022-07-30T13:57:29.591Z,2.90
2022-07-30T13:59:56.086Z,3.53
2022-07-30T14:02:22.656Z,3.17
2022-07-30T14:04:49.141Z,2.75
2022-07-30T14:07:16.253Z,3.22
2022-07-30T14:09:46.865Z,3.70
2022-07-30T14:12:13.628Z,3.00
2022-07-30T14:14:40.130Z,3.13
2022-07-30T14:17:06.647Z,3.53
2022-07-30T14:19:33.119Z,3.47
2022-07-30T14:21:59.612Z,3.55
2022-07-30T14:24:26.128Z,3.03
2022-07-30T14:26:57.682Z,3.25
2022-07-30T14:29:24.906Z,3.25
2022-07-30T14:31:51.672Z,3.65
2022-07-30T14:34:19.219Z,3.35
2022-07-30T14:36:45.708Z,3.13
2022-07-30T14:39:12.230Z,3.35
2022-07-30T14:41:38.892Z,3.22
2022-07-30T14:44:05.721Z,3.30
2022-07-30T14:46:32.293Z,3.33
2022-07-30T14:48:58.871Z,3.42
2022-07-30T14:51:26.739Z,3.40
2022-07-30T14:53:54.196Z,3.58
2022-07-30T14:56:22.228Z,3.13
2022-07-30T14:58:48.776Z,3.72
2022-07-30T15:01:16.622Z,3.42
2022-07-30T15:03:43.942Z,3.42
2022-07-30T15:06:12.617Z,3.15
2022-07-30T15:08:39.249Z,3.33
2022-07-30T15:11:07.811Z,3.22
2022-07-30T15:13:34.940Z,3.30
2022-07-30T15:16:03.197Z,3.58
2022-07-30T15:18:29.703Z,2.95
2022-07-30T15:20:56.389Z,3.28
2022-07-30T15:23:22.876Z,4.00
2022-07-30T15:25:49.532Z,3.67
2022-07-30T15:28:16.070Z,3.30
2022-07-30T15:30:42.675Z,3.42
2022-07-30T15:33:09.208Z,3.33
2022-07-30T15:35:36.528Z,3.45
2022-07-30T15:38:03.169Z,3.05
2022-07-30T15:40:29.844Z,3.60
2022-07-30T15:42:56.409Z,3.63
2022-07-30T15:45:25.943Z,3.40
2022-07-30T15:47:52.439Z,3.67
2022-07-30T15:50:18.957Z,3.35
2022-07-30T15:52:45.515Z,3.85
2022-07-30T15:55:12.463Z,3.33
2022-07-30T15:57:40.567Z,3.13
2022-07-30T16:00:08.776Z,4.00
2022-07-30T16:02:35.552Z,3.28
2022-07-30T16:05:02.162Z,3.13
2022-07-30T16:07:28.846Z,3.20
2022-07-30T16:09:55.602Z,3.70
2022-07-30T16:12:22.147Z,3.42
2022-07-30T16:14:48.668Z,4.22
2022-07-30T16:17:16.486Z,3.08
2022-07-30T16:19:44.798Z,3.40
2022-07-30T16:22:12.100Z,3.63
2022-07-30T16:24:41.386Z,4.10
2022-07-30T16:27:07.959Z,3.42
2022-07-30T16:29:34.508Z,4.07
2022-07-30T16:32:01.292Z,3.42
2022-07-30T16:34:28.454Z,3.35
2022-07-30T16:36:55.220Z,3.60
2022-07-30T16:39:21.746Z,4.00
2022-07-30T16:41:48.730Z,3.60
2022-07-30T16:44:15.237Z,3.47
2022-07-30T16:46:41.789Z,3.22
2022-07-30T16:49:08.363Z,3.30
2022-07-30T16:51:35.294Z,2.95
2022-07-30T16:54:01.800Z,3.67
2022-07-30T16:56:28.370Z,3.17
2022-07-30T16:58:54.936Z,3.40
2022-07-30T17:01:21.485Z,3.25
2022-07-30T17:03:48.090Z,3.63
2022-07-30T17:06:14.627Z,3.55
2022-07-30T17:08:41.125Z,3.38
2022-07-30T17:11:09.828Z,3.72
2022-07-30T17:13:38.364Z,3.47
2022-07-30T17:16:07.136Z,3.72
2022-07-30T17:18:33.669Z,3.95
2022-07-30T17:21:00.187Z,4.35
2022-07-30T17:23:26.688Z,3.33
2022-07-30T17:25:53.152Z,3.65
2022-07-30T17:28:19.659Z,3.67
2022-07-30T17:30:53.135Z,4.04
2022-07-30T17:33:19.761Z,3.92
2022-07-30T17:35:46.289Z,3.53
2022-07-30T17:38:12.775Z,4.60
2022-07-30T17:40:39.302Z,4.53
2022-07-30T17:43:07.573Z,4.15
2022-07-30T17:45:35.010Z,3.53
2022-07-30T17:48:01.985Z,3.63
2022-07-30T17:50:28.972Z,3.80
2022-07-30T17:52:55.440Z,3.75
2022-07-30T17:55:21.937Z,4.13
2022-07-30T17:57:48.428Z,3.50
2022-07-30T18:00:15.094Z,4.50
2022-07-30T18:02:41.652Z,4.07
2022-07-30T18:05:10.545Z,3.78
2022-07-30T18:07:37.363Z,3.85
2022-07-30T18:10:04.140Z,3.63
2022-07-30T18:12:30.957Z,3.72
2022-07-30T18:14:58.983Z,4.30
2022-07-30T18:17:25.452Z,3.92
2022-07-30T18:19:51.981Z,4.13
2022-07-30T18:22:29.012Z,3.97
2022-07-30T18:24:56.181Z,3.65
2022-07-30T18:27:22.669Z,4.07
2022-07-30T18:29:49.138Z,3.85
2022-07-30T18:32:15.656Z,3.72
2022-07-30T18:34:42.173Z,3.72
2022-07-30T18:37:08.785Z,3.20
2022-07-30T18:39:35.392Z,3.83
2022-07-30T18:42:03.582Z,3.67
2022-07-30T18:44:30.452Z,4.03
2022-07-30T18:46:57.056Z,3.70
2022-07-30T18:49:38.823Z,3.65
2022-07-30T18:52:06.688Z,3.47
2022-07-30T18:54:33.623Z,3.22
2022-07-30T18:57:00.139Z,3.38
2022-07-30T18:59:26.691Z,3.67
2022-07-30T19:01:53.797Z,3.55
2022-07-30T19:04:20.295Z,3.25
2022-07-30T19:06:46.799Z,3.88
2022-07-30T19:09:17.753Z,3.25
2022-07-30T19:11:45.273Z,2.92
2022-07-30T19:14:13.227Z,3.50
2022-07-30T19:16:40.065Z,3.88
2022-07-30T19:19:06.536Z,3.15
2022-07-30T19:21:33.059Z,2.97
2022-07-30T19:23:59.620Z,3.28
2022-07-30T19:26:26.165Z,3.15
2022-07-30T19:28:52.654Z,3.45
2022-07-30T19:31:19.502Z,3.20
2022-07-30T19:33:46.058Z,3.30
2022-07-30T19:36:15.171Z,3.92
2022-07-30T19:38:44.184Z,3.35
2022-07-30T19:41:11.664Z,4.00
2022-07-30T19:43:40.594Z,3.47
2022-07-30T19:46:07.086Z,3.75
2022-07-30T19:48:36.053Z,3.58
2022-07-30T19:51:03.419Z,3.60
2022-07-30T19:53:33.898Z,3.22
2022-07-30T19:56:03.143Z,3.53
2022-07-30T19:58:30.247Z,3.55
2022-07-30T20:00:57.204Z,3.40
2022-07-30T20:03:25.560Z,3.35
2022-07-30T20:05:59.097Z,3.55
2022-07-30T20:08:26.500Z,3.05
2022-07-30T20:10:53.285Z,3.75
2022-07-30T20:13:19.783Z,3.17
2022-07-30T20:15:48.142Z,2.88
2022-07-30T20:18:14.723Z,3.30
2022-07-30T20:20:41.322Z,3.25
2022-07-30T20:23:08.122Z,3.22
2022-07-30T20:25:36.960Z,3.33
2022-07-30T20:28:04.412Z,3.00
2022-07-30T20:30:31.096Z,3.30
2022-07-30T20:32:57.629Z,3.47
2022-07-30T20:35:26.511Z,2.58
2022-07-30T20:37:55.348Z,3.83
2022-07-30T20:40:22.546Z,2.95
2022-07-30T20:42:49.639Z,3.38
2022-07-30T20:45:16.185Z,3.63
2022-07-30T20:47:43.482Z,3.08
2022-07-30T20:50:14.390Z,3.40
2022-07-30T20:52:41.096Z,2.88
2022-07-30T20:55:15.173Z,3.33
2022-07-30T20:57:57.079Z,3.78
2022-07-30T21:00:27.854Z,3.35
2022-07-30T21:02:54.335Z,4.00
2022-07-30T21:05:20.895Z,4.03
2022-07-30T21:07:47.523Z,3.42
2022-07-30T21:10:14.600Z,3.70
2022-07-30T21:12:41.352Z,3.83
2022-07-30T21:15:23.249Z,3.97
2022-07-30T21:17:50.959Z,3.93
2022-07-30T21:20:28.048Z,3.83
2022-07-30T21:22:55.423Z,3.63
2022-07-30T21:25:23.569Z,3.73
2022-07-30T21:27:59.825Z,3.97
2022-07-30T21:30:26.497Z,3.67
2022-07-30T21:32:53.280Z,3.53
2022-07-30T21:35:19.884Z,3.53
2022-07-30T21:37:46.347Z,3.88
2022-07-30T21:40:13.823Z,3.90
2022-07-30T21:42:48.575Z,4.13
2022-07-30T21:45:15.476Z,3.60
2022-07-30T21:47:47.513Z,3.47
2022-07-30T21:50:16.126Z,3.60
2022-07-30T21:52:43.534Z,3.80
2022-07-30T21:55:13.344Z,4.30
2022-07-30T21:57:40.204Z,3.80
2022-07-30T22:00:10.705Z,4.50
2022-07-30T22:02:37.311Z,4.10
2022-07-30T22:05:03.847Z,3.70
2022-07-30T22:07:30.754Z,3.90
2022-07-30T22:09:58.430Z,4.10
2022-07-30T22:12:25.927Z,4.20
2022-07-30T22:14:55.608Z,3.57
2022-07-30T22:17:23.555Z,3.53
2022-07-30T22:20:04.120Z,4.00
2022-07-30T22:22:36.317Z,3.23
2022-07-30T22:27:56.105Z,3.83
2022-07-30T22:30:26.429Z,3.90
2022-07-30T22:32:53.201Z,3.93
2022-07-30T22:35:31.996Z,3.57
2022-07-30T22:38:00.489Z,3.37
2022-07-30T22:40:27.048Z,3.70
2022-07-30T22:42:53.527Z,3.73
2022-07-30T22:45:46.896Z,3.80
2022-07-30T22:48:10.739Z,3.53
2022-07-30T22:50:40.258Z,3.50
2022-07-30T22:54:02.568Z,4.00
2022-07-30T22:55:54.699Z,3.53
2022-07-30T22:58:21.994Z,3.50
2022-07-30T23:00:52.753Z,4.00
2022-07-30T23:03:19.459Z,3.90
2022-07-30T23:08:33.043Z,3.63
2022-07-30T23:11:00.076Z,3.20
2022-07-30T23:12:28.740Z,3.50
2022-07-30T23:12:34.383Z,3.70
2022-07-30T23:13:27.288Z,3.27
2022-07-30T23:15:53.787Z,3.20
2022-07-30T23:18:20.262Z,3.77
2022-07-30T23:20:46.719Z,3.67
2022-07-30T23:23:13.226Z,4.13
2022-07-30T23:25:40.662Z,3.60
2022-07-30T23:28:07.207Z,3.70
2022-07-30T23:30:34.439Z,3.47
2022-07-30T23:33:01.237Z,3.13
2022-07-30T23:35:27.885Z,3.40
2022-07-30T23:37:54.433Z,3.57
2022-07-30T23:40:20.953Z,3.17
2022-07-30T23:42:47.646Z,3.53
2022-07-30T23:45:14.179Z,3.50
2022-07-30T23:48:01.932Z,3.20
2022-07-30T23:50:27.130Z,3.83
2022-07-30T23:52:53.640Z,2.50
2022-07-30T23:55:20.173Z,3.23
2022-07-30T23:57:46.651Z,3.13
